sensor_id;sensor_type;location;lat;lon;timestamp;P1;durP1;ratioP1;P2;durP2;ratioP2
17955;SDS011;27666;51.498;11.966;2023-02-28T00:00:09;4.03;;;2.70;;
17955;SDS011;27666;51.498;11.966;2023-02-28T00:02:57;4.50;;;3.03;;
17955;SDS011;27666;51.498;11.966;2023-02-28T00:05:44;4.73;;;3.40;;
17955;SDS011;27666;51.498;11.966;2023-02-28T00:08:32;6.57;;;3.10;;
17955;SDS011;27666;51.498;11.966;2023-02-28T00:11:19;7.00;;;3.30;;
17955;SDS011;27666;51.498;11.966;2023-02-28T00:14:05;5.30;;;2.90;;
17955;SDS011;27666;51.498;11.966;2023-02-28T00:16:51;3.50;;;2.80;;
17955;SDS011;27666;51.498;11.966;2023-02-28T00:19:38;4.33;;;3.20;;
17955;SDS011;27666;51.498;11.966;2023-02-28T00:22:24;3.40;;;3.10;;
17955;SDS011;27666;51.498;11.966;2023-02-28T00:25:13;6.67;;;3.53;;
17955;SDS011;27666;51.498;11.966;2023-02-28T00:28:01;4.77;;;3.37;;
17955;SDS011;27666;51.498;11.966;2023-02-28T00:30:47;4.10;;;3.27;;
17955;SDS011;27666;51.498;11.966;2023-02-28T00:33:36;5.57;;;3.40;;
17955;SDS011;27666;51.498;11.966;2023-02-28T00:36:22;6.73;;;3.47;;
17955;SDS011;27666;51.498;11.966;2023-02-28T00:39:09;5.17;;;3.17;;
17955;SDS011;27666;51.498;11.966;2023-02-28T00:41:56;6.43;;;2.93;;
17955;SDS011;27666;51.498;11.966;2023-02-28T00:44:43;4.03;;;3.50;;
17955;SDS011;27666;51.498;11.966;2023-02-28T00:47:29;3.30;;;3.00;;
17955;SDS011;27666;51.498;11.966;2023-02-28T00:50:17;4.20;;;3.20;;
17955;SDS011;27666;51.498;11.966;2023-02-28T00:53:04;8.30;;;3.60;;
17955;SDS011;27666;51.498;11.966;2023-02-28T00:55:51;6.47;;;3.93;;
17955;SDS011;27666;51.498;11.966;2023-02-28T00:58:39;6.03;;;4.30;;
17955;SDS011;27666;51.498;11.966;2023-02-28T01:01:26;5.20;;;3.30;;
17955;SDS011;27666;51.498;11.966;2023-02-28T01:04:13;5.30;;;3.90;;
17955;SDS011;27666;51.498;11.966;2023-02-28T01:07:00;4.47;;;3.23;;
17955;SDS011;27666;51.498;11.966;2023-02-28T01:09:46;4.63;;;3.30;;
17955;SDS011;27666;51.498;11.966;2023-02-28T01:12:32;6.23;;;3.73;;
17955;SDS011;27666;51.498;11.966;2023-02-28T01:15:20;4.63;;;3.33;;
17955;SDS011;27666;51.498;11.966;2023-02-28T01:18:07;4.90;;;3.60;;
17955;SDS011;27666;51.498;11.966;2023-02-28T01:20:53;6.23;;;3.57;;
17955;SDS011;27666;51.498;11.966;2023-02-28T01:23:40;5.50;;;3.30;;
17955;SDS011;27666;51.498;11.966;2023-02-28T01:26:28;3.77;;;3.07;;
17955;SDS011;27666;51.498;11.966;2023-02-28T01:29:14;5.63;;;3.30;;
17955;SDS011;27666;51.498;11.966;2023-02-28T01:32:02;7.73;;;3.37;;
17955;SDS011;27666;51.498;11.966;2023-02-28T01:34:49;3.83;;;3.10;;
17955;SDS011;27666;51.498;11.966;2023-02-28T01:37:35;6.50;;;3.33;;
17955;SDS011;27666;51.498;11.966;2023-02-28T01:40:22;3.83;;;3.10;;
17955;SDS011;27666;51.498;11.966;2023-02-28T01:43:10;7.27;;;3.60;;
17955;SDS011;27666;51.498;11.966;2023-02-28T01:46:06;4.43;;;3.03;;
17955;SDS011;27666;51.498;11.966;2023-02-28T01:48:54;4.40;;;3.07;;
17955;SDS011;27666;51.498;11.966;2023-02-28T01:51:46;5.13;;;3.67;;
17955;SDS011;27666;51.498;11.966;2023-02-28T01:54:36;8.73;;;3.20;;
17955;SDS011;27666;51.498;11.966;2023-02-28T01:57:23;5.07;;;3.23;;
17955;SDS011;27666;51.498;11.966;2023-02-28T02:00:17;4.10;;;2.90;;
17955;SDS011;27666;51.498;11.966;2023-02-28T02:03:06;4.43;;;2.90;;
17955;SDS011;27666;51.498;11.966;2023-02-28T02:05:57;5.93;;;2.90;;
17955;SDS011;27666;51.498;11.966;2023-02-28T02:08:43;6.03;;;3.30;;
17955;SDS011;27666;51.498;11.966;2023-02-28T02:11:29;3.90;;;2.90;;
17955;SDS011;27666;51.498;11.966;2023-02-28T02:14:21;3.70;;;2.47;;
17955;SDS011;27666;51.498;11.966;2023-02-28T02:17:20;3.57;;;3.03;;
17955;SDS011;27666;51.498;11.966;2023-02-28T02:27:20;3.50;;;3.17;;
17955;SDS011;27666;51.498;11.966;2023-02-28T02:30:19;7.13;;;2.83;;
17955;SDS011;27666;51.498;11.966;2023-02-28T02:33:20;4.03;;;2.77;;
17955;SDS011;27666;51.498;11.966;2023-02-28T02:36:23;5.77;;;3.07;;
17955;SDS011;27666;51.498;11.966;2023-02-28T02:39:14;5.33;;;3.00;;
17955;SDS011;27666;51.498;11.966;2023-02-28T02:42:05;3.13;;;2.80;;
17955;SDS011;27666;51.498;11.966;2023-02-28T02:45:00;5.00;;;2.90;;
17955;SDS011;27666;51.498;11.966;2023-02-28T02:47:50;3.53;;;2.87;;
17955;SDS011;27666;51.498;11.966;2023-02-28T02:50:38;4.60;;;3.10;;
17955;SDS011;27666;51.498;11.966;2023-02-28T02:53:29;4.30;;;3.10;;
17955;SDS011;27666;51.498;11.966;2023-02-28T02:56:21;4.00;;;3.07;;
17955;SDS011;27666;51.498;11.966;2023-02-28T02:59:12;2.97;;;2.70;;
17955;SDS011;27666;51.498;11.966;2023-02-28T03:02:06;5.17;;;3.13;;
17955;SDS011;27666;51.498;11.966;2023-02-28T03:04:56;5.87;;;3.50;;
17955;SDS011;27666;51.498;11.966;2023-02-28T03:07:46;3.07;;;2.77;;
17955;SDS011;27666;51.498;11.966;2023-02-28T03:10:36;4.40;;;2.90;;
17955;SDS011;27666;51.498;11.966;2023-02-28T03:16:34;5.60;;;3.17;;
17955;SDS011;27666;51.498;11.966;2023-02-28T03:19:31;3.57;;;2.70;;
17955;SDS011;27666;51.498;11.966;2023-02-28T03:22:35;4.20;;;2.97;;
17955;SDS011;27666;51.498;11.966;2023-02-28T03:25:37;3.70;;;3.03;;
17955;SDS011;27666;51.498;11.966;2023-02-28T03:28:31;3.57;;;2.90;;
17955;SDS011;27666;51.498;11.966;2023-02-28T03:31:26;2.90;;;2.70;;
17955;SDS011;27666;51.498;11.966;2023-02-28T03:34:17;3.33;;;2.90;;
17955;SDS011;27666;51.498;11.966;2023-02-28T03:37:08;3.07;;;2.77;;
17955;SDS011;27666;51.498;11.966;2023-02-28T03:39:58;5.67;;;3.10;;
17955;SDS011;27666;51.498;11.966;2023-02-28T03:42:53;3.77;;;3.27;;
17955;SDS011;27666;51.498;11.966;2023-02-28T03:45:44;6.20;;;2.90;;
17955;SDS011;27666;51.498;11.966;2023-02-28T03:48:34;4.10;;;2.73;;
17955;SDS011;27666;51.498;11.966;2023-02-28T03:51:26;3.50;;;2.70;;
17955;SDS011;27666;51.498;11.966;2023-02-28T03:54:17;5.57;;;3.07;;
17955;SDS011;27666;51.498;11.966;2023-02-28T03:57:10;4.93;;;3.10;;
17955;SDS011;27666;51.498;11.966;2023-02-28T04:00:04;3.50;;;3.03;;
17955;SDS011;27666;51.498;11.966;2023-02-28T04:02:52;5.50;;;2.90;;
17955;SDS011;27666;51.498;11.966;2023-02-28T04:05:45;3.37;;;2.67;;
17955;SDS011;27666;51.498;11.966;2023-02-28T04:08:34;3.93;;;3.30;;
17955;SDS011;27666;51.498;11.966;2023-02-28T04:11:22;3.77;;;2.70;;
17955;SDS011;27666;51.498;11.966;2023-02-28T04:14:09;4.20;;;3.37;;
17955;SDS011;27666;51.498;11.966;2023-02-28T04:16:57;5.03;;;3.13;;
17955;SDS011;27666;51.498;11.966;2023-02-28T04:19:44;3.27;;;2.80;;
17955;SDS011;27666;51.498;11.966;2023-02-28T04:22:30;5.00;;;3.13;;
17955;SDS011;27666;51.498;11.966;2023-02-28T04:25:17;3.73;;;3.10;;
17955;SDS011;27666;51.498;11.966;2023-02-28T04:28:03;3.73;;;2.90;;
17955;SDS011;27666;51.498;11.966;2023-02-28T04:30:53;4.33;;;2.80;;
17955;SDS011;27666;51.498;11.966;2023-02-28T04:33:42;6.27;;;3.17;;
17955;SDS011;27666;51.498;11.966;2023-02-28T04:36:29;3.20;;;2.90;;
17955;SDS011;27666;51.498;11.966;2023-02-28T04:39:16;4.90;;;3.20;;
17955;SDS011;27666;51.498;11.966;2023-02-28T04:42:03;3.43;;;2.90;;
17955;SDS011;27666;51.498;11.966;2023-02-28T04:44:49;4.37;;;3.20;;
17955;SDS011;27666;51.498;11.966;2023-02-28T04:47:36;4.47;;;3.17;;
17955;SDS011;27666;51.498;11.966;2023-02-28T04:50:25;4.07;;;2.97;;
17955;SDS011;27666;51.498;11.966;2023-02-28T04:53:12;7.53;;;3.33;;
17955;SDS011;27666;51.498;11.966;2023-02-28T04:55:58;4.73;;;3.37;;
17955;SDS011;27666;51.498;11.966;2023-02-28T04:58:45;5.70;;;3.67;;
17955;SDS011;27666;51.498;11.966;2023-02-28T05:01:32;10.00;;;3.73;;
17955;SDS011;27666;51.498;11.966;2023-02-28T05:04:21;5.83;;;3.70;;
17955;SDS011;27666;51.498;11.966;2023-02-28T05:07:08;7.07;;;3.40;;
17955;SDS011;27666;51.498;11.966;2023-02-28T05:09:55;4.00;;;3.30;;
17955;SDS011;27666;51.498;11.966;2023-02-28T05:12:42;7.43;;;4.13;;
17955;SDS011;27666;51.498;11.966;2023-02-28T05:15:28;6.50;;;4.03;;
17955;SDS011;27666;51.498;11.966;2023-02-28T05:18:14;9.67;;;4.23;;
17955;SDS011;27666;51.498;11.966;2023-02-28T05:21:01;5.27;;;3.57;;
17955;SDS011;27666;51.498;11.966;2023-02-28T05:23:49;5.10;;;3.90;;
17955;SDS011;27666;51.498;11.966;2023-02-28T05:26:37;5.63;;;3.87;;
17955;SDS011;27666;51.498;11.966;2023-02-28T05:29:25;5.03;;;4.17;;
17955;SDS011;27666;51.498;11.966;2023-02-28T05:32:11;5.67;;;3.80;;
17955;SDS011;27666;51.498;11.966;2023-02-28T05:34:58;8.17;;;4.47;;
17955;SDS011;27666;51.498;11.966;2023-02-28T05:37:44;5.83;;;3.70;;
17955;SDS011;27666;51.498;11.966;2023-02-28T05:40:32;10.57;;;4.13;;
17955;SDS011;27666;51.498;11.966;2023-02-28T05:43:19;6.10;;;3.70;;
17955;SDS011;27666;51.498;11.966;2023-02-28T05:46:06;7.63;;;4.53;;
17955;SDS011;27666;51.498;11.966;2023-02-28T05:48:54;11.47;;;6.13;;
17955;SDS011;27666;51.498;11.966;2023-02-28T05:51:42;6.17;;;4.97;;
17955;SDS011;27666;51.498;11.966;2023-02-28T05:54:29;5.30;;;4.10;;
17955;SDS011;27666;51.498;11.966;2023-02-28T05:57:17;6.90;;;4.17;;
17955;SDS011;27666;51.498;11.966;2023-02-28T06:00:09;5.53;;;4.53;;
17955;SDS011;27666;51.498;11.966;2023-02-28T06:02:57;8.90;;;5.57;;
17955;SDS011;27666;51.498;11.966;2023-02-28T06:05:46;5.60;;;4.17;;
17955;SDS011;27666;51.498;11.966;2023-02-28T06:08:33;6.97;;;4.33;;
17955;SDS011;27666;51.498;11.966;2023-02-28T06:11:19;6.60;;;4.50;;
17955;SDS011;27666;51.498;11.966;2023-02-28T06:14:09;8.17;;;4.33;;
17955;SDS011;27666;51.498;11.966;2023-02-28T06:17:00;6.37;;;4.27;;
17955;SDS011;27666;51.498;11.966;2023-02-28T06:19:47;5.03;;;4.03;;
17955;SDS011;27666;51.498;11.966;2023-02-28T06:22:34;7.57;;;4.47;;
17955;SDS011;27666;51.498;11.966;2023-02-28T06:25:21;6.83;;;4.30;;
17955;SDS011;27666;51.498;11.966;2023-02-28T06:28:07;7.00;;;4.23;;
17955;SDS011;27666;51.498;11.966;2023-02-28T06:30:55;8.30;;;4.20;;
17955;SDS011;27666;51.498;11.966;2023-02-28T06:33:42;6.00;;;4.30;;
17955;SDS011;27666;51.498;11.966;2023-02-28T06:36:29;8.87;;;4.53;;
17955;SDS011;27666;51.498;11.966;2023-02-28T06:39:16;12.53;;;4.77;;
17955;SDS011;27666;51.498;11.966;2023-02-28T06:42:03;9.77;;;5.50;;
17955;SDS011;27666;51.498;11.966;2023-02-28T06:44:50;7.00;;;4.30;;
17955;SDS011;27666;51.498;11.966;2023-02-28T06:47:37;6.63;;;4.10;;
17955;SDS011;27666;51.498;11.966;2023-02-28T06:50:25;7.17;;;4.10;;
17955;SDS011;27666;51.498;11.966;2023-02-28T06:53:14;8.27;;;4.07;;
17955;SDS011;27666;51.498;11.966;2023-02-28T06:56:03;9.97;;;4.93;;
17955;SDS011;27666;51.498;11.966;2023-02-28T06:58:50;6.03;;;3.80;;
17955;SDS011;27666;51.498;11.966;2023-02-28T07:01:38;7.37;;;4.27;;
17955;SDS011;27666;51.498;11.966;2023-02-28T07:04:26;4.17;;;3.77;;
17955;SDS011;27666;51.498;11.966;2023-02-28T07:07:14;7.77;;;4.20;;
17955;SDS011;27666;51.498;11.966;2023-02-28T07:10:01;8.40;;;4.30;;
17955;SDS011;27666;51.498;11.966;2023-02-28T07:12:47;7.80;;;4.57;;
17955;SDS011;27666;51.498;11.966;2023-02-28T07:15:33;5.63;;;3.97;;
17955;SDS011;27666;51.498;11.966;2023-02-28T07:18:24;11.80;;;4.43;;
17955;SDS011;27666;51.498;11.966;2023-02-28T07:21:12;8.60;;;5.30;;
17955;SDS011;27666;51.498;11.966;2023-02-28T07:23:59;7.27;;;4.53;;
17955;SDS011;27666;51.498;11.966;2023-02-28T07:26:45;7.27;;;4.23;;
17955;SDS011;27666;51.498;11.966;2023-02-28T07:29:32;9.63;;;4.27;;
17955;SDS011;27666;51.498;11.966;2023-02-28T07:32:18;7.10;;;4.37;;
17955;SDS011;27666;51.498;11.966;2023-02-28T07:35:05;7.03;;;5.03;;
17955;SDS011;27666;51.498;11.966;2023-02-28T07:37:53;9.77;;;4.60;;
17955;SDS011;27666;51.498;11.966;2023-02-28T07:40:44;6.77;;;4.87;;
17955;SDS011;27666;51.498;11.966;2023-02-28T07:43:31;10.27;;;5.30;;
17955;SDS011;27666;51.498;11.966;2023-02-28T07:46:17;9.17;;;4.10;;
17955;SDS011;27666;51.498;11.966;2023-02-28T07:49:05;8.53;;;4.27;;
17955;SDS011;27666;51.498;11.966;2023-02-28T07:51:52;8.57;;;4.57;;
17955;SDS011;27666;51.498;11.966;2023-02-28T07:54:40;6.03;;;4.37;;
17955;SDS011;27666;51.498;11.966;2023-02-28T07:57:26;10.83;;;4.73;;
17955;SDS011;27666;51.498;11.966;2023-02-28T08:00:13;7.27;;;3.87;;
17955;SDS011;27666;51.498;11.966;2023-02-28T08:03:00;6.57;;;3.83;;
17955;SDS011;27666;51.498;11.966;2023-02-28T08:05:47;8.17;;;4.53;;
17955;SDS011;27666;51.498;11.966;2023-02-28T08:08:34;8.23;;;4.10;;
17955;SDS011;27666;51.498;11.966;2023-02-28T08:11:22;10.30;;;4.37;;
17955;SDS011;27666;51.498;11.966;2023-02-28T08:14:08;7.37;;;4.23;;
17955;SDS011;27666;51.498;11.966;2023-02-28T08:16:55;5.90;;;3.93;;
17955;SDS011;27666;51.498;11.966;2023-02-28T08:19:41;6.00;;;4.07;;
17955;SDS011;27666;51.498;11.966;2023-02-28T08:22:27;14.03;;;4.57;;
17955;SDS011;27666;51.498;11.966;2023-02-28T08:25:14;7.57;;;4.13;;
17955;SDS011;27666;51.498;11.966;2023-02-28T08:28:04;7.43;;;4.40;;
17955;SDS011;27666;51.498;11.966;2023-02-28T08:30:51;14.80;;;4.53;;
17955;SDS011;27666;51.498;11.966;2023-02-28T08:33:38;6.77;;;4.53;;
17955;SDS011;27666;51.498;11.966;2023-02-28T08:36:24;15.77;;;6.10;;
17955;SDS011;27666;51.498;11.966;2023-02-28T08:39:13;9.23;;;5.03;;
17955;SDS011;27666;51.498;11.966;2023-02-28T08:42:00;6.60;;;4.27;;
17955;SDS011;27666;51.498;11.966;2023-02-28T08:44:53;6.90;;;4.77;;
17955;SDS011;27666;51.498;11.966;2023-02-28T08:47:39;8.30;;;4.93;;
17955;SDS011;27666;51.498;11.966;2023-02-28T08:50:26;6.90;;;4.47;;
17955;SDS011;27666;51.498;11.966;2023-02-28T08:53:12;9.23;;;4.37;;
17955;SDS011;27666;51.498;11.966;2023-02-28T08:55:59;7.50;;;4.37;;
17955;SDS011;27666;51.498;11.966;2023-02-28T08:58:48;6.20;;;4.33;;
17955;SDS011;27666;51.498;11.966;2023-02-28T09:01:37;7.27;;;4.40;;
17955;SDS011;27666;51.498;11.966;2023-02-28T09:04:25;6.97;;;4.63;;
17955;SDS011;27666;51.498;11.966;2023-02-28T09:07:15;6.03;;;3.90;;
17955;SDS011;27666;51.498;11.966;2023-02-28T09:10:01;6.47;;;4.40;;
17955;SDS011;27666;51.498;11.966;2023-02-28T09:12:48;6.50;;;5.03;;
17955;SDS011;27666;51.498;11.966;2023-02-28T09:15:36;7.70;;;4.40;;
17955;SDS011;27666;51.498;11.966;2023-02-28T09:18:25;8.03;;;5.13;;
17955;SDS011;27666;51.498;11.966;2023-02-28T09:21:13;8.47;;;4.30;;
17955;SDS011;27666;51.498;11.966;2023-02-28T09:24:02;8.37;;;4.50;;
17955;SDS011;27666;51.498;11.966;2023-02-28T09:26:48;12.23;;;4.80;;
17955;SDS011;27666;51.498;11.966;2023-02-28T09:29:48;8.00;;;4.37;;
17955;SDS011;27666;51.498;11.966;2023-02-28T09:32:35;6.63;;;4.73;;
17955;SDS011;27666;51.498;11.966;2023-02-28T09:35:23;7.57;;;4.57;;
17955;SDS011;27666;51.498;11.966;2023-02-28T09:38:11;8.33;;;4.70;;
17955;SDS011;27666;51.498;11.966;2023-02-28T09:40:58;8.33;;;5.10;;
17955;SDS011;27666;51.498;11.966;2023-02-28T09:43:47;5.93;;;4.33;;
17955;SDS011;27666;51.498;11.966;2023-02-28T09:46:37;7.50;;;4.60;;
17955;SDS011;27666;51.498;11.966;2023-02-28T09:49:28;6.10;;;4.03;;
17955;SDS011;27666;51.498;11.966;2023-02-28T09:52:24;5.23;;;3.90;;
17955;SDS011;27666;51.498;11.966;2023-02-28T09:55:18;5.80;;;3.67;;
17955;SDS011;27666;51.498;11.966;2023-02-28T09:58:09;6.40;;;3.60;;
17955;SDS011;27666;51.498;11.966;2023-02-28T10:01:07;10.90;;;3.37;;
17955;SDS011;27666;51.498;11.966;2023-02-28T10:03:58;4.93;;;2.60;;
17955;SDS011;27666;51.498;11.966;2023-02-28T10:06:49;7.37;;;3.33;;
17955;SDS011;27666;51.498;11.966;2023-02-28T10:09:39;6.33;;;3.07;;
17955;SDS011;27666;51.498;11.966;2023-02-28T10:12:26;6.10;;;3.33;;
17955;SDS011;27666;51.498;11.966;2023-02-28T10:15:15;5.80;;;3.23;;
17955;SDS011;27666;51.498;11.966;2023-02-28T10:18:03;5.07;;;3.47;;
17955;SDS011;27666;51.498;11.966;2023-02-28T10:20:54;4.20;;;3.30;;
17955;SDS011;27666;51.498;11.966;2023-02-28T10:23:42;8.83;;;3.80;;
17955;SDS011;27666;51.498;11.966;2023-02-28T10:26:31;3.97;;;3.57;;
17955;SDS011;27666;51.498;11.966;2023-02-28T10:29:19;4.30;;;3.60;;
17955;SDS011;27666;51.498;11.966;2023-02-28T10:32:05;7.37;;;3.97;;
17955;SDS011;27666;51.498;11.966;2023-02-28T10:34:52;7.83;;;4.33;;
17955;SDS011;27666;51.498;11.966;2023-02-28T10:37:44;4.33;;;3.53;;
17955;SDS011;27666;51.498;11.966;2023-02-28T10:40:33;5.43;;;4.10;;
17955;SDS011;27666;51.498;11.966;2023-02-28T10:43:22;6.43;;;4.17;;
17955;SDS011;27666;51.498;11.966;2023-02-28T10:46:11;8.53;;;4.73;;
17955;SDS011;27666;51.498;11.966;2023-02-28T10:49:14;6.20;;;4.30;;
17955;SDS011;27666;51.498;11.966;2023-02-28T10:52:08;6.30;;;4.23;;
17955;SDS011;27666;51.498;11.966;2023-02-28T10:54:56;11.77;;;4.80;;
17955;SDS011;27666;51.498;11.966;2023-02-28T10:58:01;6.87;;;4.17;;
17955;SDS011;27666;51.498;11.966;2023-02-28T11:00:50;11.00;;;3.97;;
17955;SDS011;27666;51.498;11.966;2023-02-28T11:03:37;7.00;;;4.40;;
17955;SDS011;27666;51.498;11.966;2023-02-28T11:06:25;6.03;;;4.13;;
17955;SDS011;27666;51.498;11.966;2023-02-28T11:09:18;6.47;;;4.13;;
17955;SDS011;27666;51.498;11.966;2023-02-28T11:12:19;6.80;;;4.70;;
17955;SDS011;27666;51.498;11.966;2023-02-28T11:15:18;5.10;;;4.00;;
17955;SDS011;27666;51.498;11.966;2023-02-28T11:18:19;5.00;;;4.27;;
17955;SDS011;27666;51.498;11.966;2023-02-28T11:21:09;7.10;;;4.77;;
17955;SDS011;27666;51.498;11.966;2023-02-28T11:24:04;7.63;;;4.77;;
17955;SDS011;27666;51.498;11.966;2023-02-28T11:27:11;5.50;;;4.13;;
17955;SDS011;27666;51.498;11.966;2023-02-28T11:30:23;7.10;;;4.60;;
17955;SDS011;27666;51.498;11.966;2023-02-28T11:33:23;6.23;;;4.80;;
17955;SDS011;27666;51.498;11.966;2023-02-28T11:36:14;7.93;;;4.63;;
17955;SDS011;27666;51.498;11.966;2023-02-28T11:39:09;6.97;;;4.87;;
17955;SDS011;27666;51.498;11.966;2023-02-28T11:42:01;8.27;;;5.30;;
17955;SDS011;27666;51.498;11.966;2023-02-28T11:45:00;7.50;;;4.80;;
17955;SDS011;27666;51.498;11.966;2023-02-28T11:47:57;6.87;;;5.17;;
17955;SDS011;27666;51.498;11.966;2023-02-28T11:50:54;8.60;;;5.17;;
17955;SDS011;27666;51.498;11.966;2023-02-28T11:53:50;7.20;;;4.67;;
17955;SDS011;27666;51.498;11.966;2023-02-28T11:57:03;5.87;;;4.30;;
17955;SDS011;27666;51.498;11.966;2023-02-28T12:00:03;8.63;;;5.37;;
17955;SDS011;27666;51.498;11.966;2023-02-28T12:03:01;6.77;;;4.70;;
17955;SDS011;27666;51.498;11.966;2023-02-28T12:06:03;8.73;;;4.73;;
17955;SDS011;27666;51.498;11.966;2023-02-28T12:09:04;7.40;;;4.87;;
17955;SDS011;27666;51.498;11.966;2023-02-28T12:12:04;5.97;;;4.97;;
17955;SDS011;27666;51.498;11.966;2023-02-28T12:15:05;6.43;;;5.27;;
17955;SDS011;27666;51.498;11.966;2023-02-28T12:18:13;10.87;;;5.20;;
17955;SDS011;27666;51.498;11.966;2023-02-28T12:21:10;6.23;;;4.73;;
17955;SDS011;27666;51.498;11.966;2023-02-28T12:24:07;7.53;;;4.67;;
17955;SDS011;27666;51.498;11.966;2023-02-28T12:27:14;7.83;;;5.27;;
17955;SDS011;27666;51.498;11.966;2023-02-28T12:30:06;4.83;;;4.30;;
17955;SDS011;27666;51.498;11.966;2023-02-28T12:33:01;10.60;;;5.90;;
17955;SDS011;27666;51.498;11.966;2023-02-28T12:35:51;7.13;;;5.50;;
17955;SDS011;27666;51.498;11.966;2023-02-28T12:38:43;9.37;;;5.50;;
17955;SDS011;27666;51.498;11.966;2023-02-28T12:41:35;8.10;;;4.93;;
17955;SDS011;27666;51.498;11.966;2023-02-28T12:44:26;7.23;;;5.47;;
17955;SDS011;27666;51.498;11.966;2023-02-28T12:47:17;7.20;;;5.03;;
17955;SDS011;27666;51.498;11.966;2023-02-28T12:50:06;7.83;;;5.27;;
17955;SDS011;27666;51.498;11.966;2023-02-28T12:52:58;6.93;;;5.20;;
17955;SDS011;27666;51.498;11.966;2023-02-28T12:55:50;8.40;;;5.27;;
17955;SDS011;27666;51.498;11.966;2023-02-28T12:58:49;6.10;;;4.87;;
17955;SDS011;27666;51.498;11.966;2023-02-28T13:01:45;6.70;;;5.27;;
17955;SDS011;27666;51.498;11.966;2023-02-28T13:04:52;9.00;;;5.70;;
17955;SDS011;27666;51.498;11.966;2023-02-28T13:08:01;9.53;;;5.40;;
17955;SDS011;27666;51.498;11.966;2023-02-28T13:10:58;7.87;;;5.10;;
17955;SDS011;27666;51.498;11.966;2023-02-28T13:13:49;7.60;;;5.50;;
17955;SDS011;27666;51.498;11.966;2023-02-28T13:16:55;7.67;;;5.10;;
17955;SDS011;27666;51.498;11.966;2023-02-28T13:19:45;5.60;;;4.90;;
17955;SDS011;27666;51.498;11.966;2023-02-28T13:22:42;6.27;;;4.83;;
17955;SDS011;27666;51.498;11.966;2023-02-28T13:28:58;7.47;;;5.57;;
17955;SDS011;27666;51.498;11.966;2023-02-28T13:38:31;8.50;;;5.43;;
17955;SDS011;27666;51.498;11.966;2023-02-28T13:44:46;10.10;;;5.43;;
17955;SDS011;27666;51.498;11.966;2023-02-28T13:48:16;10.80;;;5.77;;
17955;SDS011;27666;51.498;11.966;2023-02-28T13:54:31;8.53;;;5.40;;
17955;SDS011;27666;51.498;11.966;2023-02-28T13:57:29;7.70;;;5.93;;
17955;SDS011;27666;51.498;11.966;2023-02-28T14:00:31;10.37;;;5.97;;
17955;SDS011;27666;51.498;11.966;2023-02-28T14:03:31;6.27;;;4.80;;
17955;SDS011;27666;51.498;11.966;2023-02-28T14:06:27;7.00;;;5.13;;
17955;SDS011;27666;51.498;11.966;2023-02-28T14:09:19;8.33;;;5.20;;
17955;SDS011;27666;51.498;11.966;2023-02-28T14:15:40;7.13;;;5.37;;
17955;SDS011;27666;51.498;11.966;2023-02-28T14:18:32;6.60;;;4.63;;
17955;SDS011;27666;51.498;11.966;2023-02-28T14:21:21;6.37;;;4.77;;
17955;SDS011;27666;51.498;11.966;2023-02-28T14:27:24;6.97;;;5.07;;
17955;SDS011;27666;51.498;11.966;2023-02-28T14:30:36;7.60;;;5.00;;
17955;SDS011;27666;51.498;11.966;2023-02-28T14:33:53;7.27;;;4.87;;
17955;SDS011;27666;51.498;11.966;2023-02-28T14:36:49;8.07;;;5.30;;
17955;SDS011;27666;51.498;11.966;2023-02-28T14:39:40;8.53;;;5.10;;
17955;SDS011;27666;51.498;11.966;2023-02-28T14:42:29;7.77;;;5.10;;
17955;SDS011;27666;51.498;11.966;2023-02-28T14:45:18;9.00;;;5.40;;
17955;SDS011;27666;51.498;11.966;2023-02-28T14:48:09;7.53;;;5.00;;
17955;SDS011;27666;51.498;11.966;2023-02-28T14:50:56;7.53;;;5.13;;
17955;SDS011;27666;51.498;11.966;2023-02-28T14:53:44;6.70;;;5.03;;
17955;SDS011;27666;51.498;11.966;2023-02-28T14:56:37;6.30;;;4.90;;
17955;SDS011;27666;51.498;11.966;2023-02-28T14:59:27;8.57;;;5.13;;
17955;SDS011;27666;51.498;11.966;2023-02-28T15:02:19;10.13;;;5.37;;
17955;SDS011;27666;51.498;11.966;2023-02-28T15:05:19;7.67;;;5.23;;
17955;SDS011;27666;51.498;11.966;2023-02-28T15:08:10;9.30;;;5.43;;
17955;SDS011;27666;51.498;11.966;2023-02-28T15:10:59;7.37;;;4.90;;
17955;SDS011;27666;51.498;11.966;2023-02-28T15:13:50;7.97;;;5.13;;
17955;SDS011;27666;51.498;11.966;2023-02-28T15:16:40;6.83;;;4.60;;
17955;SDS011;27666;51.498;11.966;2023-02-28T15:19:30;9.10;;;5.40;;
17955;SDS011;27666;51.498;11.966;2023-02-28T15:22:23;8.53;;;5.17;;
17955;SDS011;27666;51.498;11.966;2023-02-28T15:25:15;6.37;;;5.50;;
17955;SDS011;27666;51.498;11.966;2023-02-28T15:28:05;8.00;;;5.23;;
17955;SDS011;27666;51.498;11.966;2023-02-28T15:31:01;7.30;;;5.20;;
17955;SDS011;27666;51.498;11.966;2023-02-28T15:33:53;9.83;;;5.70;;
17955;SDS011;27666;51.498;11.966;2023-02-28T15:36:41;8.43;;;5.47;;
17955;SDS011;27666;51.498;11.966;2023-02-28T15:39:32;7.57;;;4.90;;
17955;SDS011;27666;51.498;11.966;2023-02-28T15:42:28;8.13;;;5.70;;
17955;SDS011;27666;51.498;11.966;2023-02-28T15:45:26;6.97;;;5.20;;
17955;SDS011;27666;51.498;11.966;2023-02-28T15:48:16;7.63;;;5.50;;
17955;SDS011;27666;51.498;11.966;2023-02-28T15:51:06;9.60;;;5.90;;
17955;SDS011;27666;51.498;11.966;2023-02-28T15:53:56;7.90;;;5.30;;
17955;SDS011;27666;51.498;11.966;2023-02-28T15:56:46;7.97;;;5.03;;
17955;SDS011;27666;51.498;11.966;2023-02-28T15:59:36;7.20;;;5.40;;
17955;SDS011;27666;51.498;11.966;2023-02-28T16:02:29;6.43;;;5.20;;
17955;SDS011;27666;51.498;11.966;2023-02-28T16:05:18;9.57;;;5.30;;
17955;SDS011;27666;51.498;11.966;2023-02-28T16:08:13;9.67;;;5.40;;
17955;SDS011;27666;51.498;11.966;2023-02-28T16:11:01;10.10;;;5.50;;
17955;SDS011;27666;51.498;11.966;2023-02-28T16:13:49;6.97;;;5.07;;
17955;SDS011;27666;51.498;11.966;2023-02-28T16:16:41;9.00;;;5.87;;
17955;SDS011;27666;51.498;11.966;2023-02-28T16:19:29;9.13;;;5.83;;
17955;SDS011;27666;51.498;11.966;2023-02-28T16:22:17;11.17;;;5.67;;
17955;SDS011;27666;51.498;11.966;2023-02-28T16:25:04;9.77;;;4.97;;
17955;SDS011;27666;51.498;11.966;2023-02-28T16:27:52;7.77;;;5.50;;
17955;SDS011;27666;51.498;11.966;2023-02-28T16:30:42;8.77;;;6.07;;
17955;SDS011;27666;51.498;11.966;2023-02-28T16:33:29;10.57;;;5.70;;
17955;SDS011;27666;51.498;11.966;2023-02-28T16:36:16;7.23;;;5.73;;
17955;SDS011;27666;51.498;11.966;2023-02-28T16:39:04;11.63;;;6.80;;
17955;SDS011;27666;51.498;11.966;2023-02-28T16:41:50;10.03;;;6.13;;
17955;SDS011;27666;51.498;11.966;2023-02-28T16:44:37;10.73;;;7.17;;
17955;SDS011;27666;51.498;11.966;2023-02-28T16:47:26;11.80;;;6.20;;
17955;SDS011;27666;51.498;11.966;2023-02-28T16:50:13;11.83;;;6.67;;
17955;SDS011;27666;51.498;11.966;2023-02-28T16:53:02;11.47;;;6.73;;
17955;SDS011;27666;51.498;11.966;2023-02-28T16:55:48;12.70;;;7.32;;
17955;SDS011;27666;51.498;11.966;2023-02-28T16:58:35;10.67;;;7.10;;
17955;SDS011;27666;51.498;11.966;2023-02-28T17:01:22;14.47;;;7.43;;
17955;SDS011;27666;51.498;11.966;2023-02-28T17:04:11;13.47;;;8.00;;
17955;SDS011;27666;51.498;11.966;2023-02-28T17:06:59;9.20;;;6.73;;
17955;SDS011;27666;51.498;11.966;2023-02-28T17:09:45;10.17;;;6.97;;
17955;SDS011;27666;51.498;11.966;2023-02-28T17:12:32;11.83;;;7.00;;
17955;SDS011;27666;51.498;11.966;2023-02-28T17:15:19;10.47;;;7.53;;
17955;SDS011;27666;51.498;11.966;2023-02-28T17:18:06;11.23;;;7.43;;
17955;SDS011;27666;51.498;11.966;2023-02-28T17:20:57;12.80;;;7.73;;
17955;SDS011;27666;51.498;11.966;2023-02-28T17:23:43;15.15;;;9.32;;